Time;durP1;ratioP1;P1;durP2;ratioP2;P2;SDS_P1;SDS_P2;PMS_P1;PMS_P2;Temp;Humidity;BMP_temperature;BMP_pressure;BME280_temperature;BME280_humidity;BME280_pressure;Samples;Min_cycle;Max_cycle;Signal;HPM_P1;HPM_P2
2022/01/18 00:01:12;;;;;;;26.42;11.35;;;;;;;1.49;76.43;102390.25;5005297;28;20052;-57
2022/01/18 00:03:39;;;;;;;27.85;11.18;;;;;;;1.48;77.74;102386.81;5000560;28;20054;-55
2022/01/18 00:06:06;;;;;;;30.55;10.57;;;;;;;1.47;77.13;102389.25;5002484;28;20046;-60
2022/01/18 00:08:33;;;;;;;32.38;10.20;;;;;;;1.43;76.57;102400.91;5002207;28;20046;-58
2022/01/18 00:10:59;;;;;;;25.83;10.98;;;;;;;1.39;76.54;102394.69;5004700;28;20556;-53
2022/01/18 00:13:44;;;;;;;28.10;9.40;;;;;;;1.36;76.76;102393.59;5005552;28;20049;-56
2022/01/18 00:19:08;;;;;;;26.13;10.07;;;;;;;1.30;77.04;102400.78;4998772;28;20045;-57
2022/01/18 00:22:03;;;;;;;26.50;11.13;;;;;;;1.28;76.63;102398.13;5002864;28;20054;-55
2022/01/18 00:24:21;;;;;;;28.50;11.05;;;;;;;1.24;77.26;102394.47;5006527;28;20038;-59
2022/01/18 00:26:48;;;;;;;28.08;11.15;;;;;;;1.23;77.90;102402.91;5001469;28;20108;-57
2022/01/18 00:29:17;;;;;;;28.17;10.05;;;;;;;1.22;76.81;102395.13;5007992;28;20054;-57
2022/01/18 00:31:57;;;;;;;24.83;9.55;;;;;;;1.19;76.64;102390.69;5006299;28;20062;-56
2022/01/18 00:34:29;;;;;;;27.10;10.73;;;;;;;1.15;77.32;102391.25;4990599;28;20502;-54
2022/01/18 00:37:25;;;;;;;26.00;10.30;;;;;;;1.12;76.97;102385.91;5005173;28;20046;-55
2022/01/18 00:39:43;;;;;;;23.15;9.63;;;;;;;1.08;76.08;102383.91;5003365;28;20046;-56
2022/01/18 00:42:09;;;;;;;28.13;10.57;;;;;;;1.06;76.11;102388.88;5011632;28;20505;-56
2022/01/18 00:44:36;;;;;;;26.88;10.52;;;;;;;1.06;76.97;102393.09;5005178;28;20390;-57
2022/01/18 00:47:03;;;;;;;25.70;10.38;;;;;;;1.02;77.07;102392.00;5009631;28;20050;-53
2022/01/18 00:49:31;;;;;;;83.20;11.63;;;;;;;1.01;77.30;102385.09;5003661;28;20458;-55
2022/01/18 00:52:03;;;;;;;107.63;12.50;;;;;;;0.98;76.82;102374.69;5009256;28;20154;-56
2022/01/18 00:54:39;;;;;;;90.47;11.25;;;;;;;0.97;77.05;102373.78;5008363;28;20056;-55
2022/01/18 00:57:06;;;;;;;36.90;9.80;;;;;;;0.94;77.60;102378.66;5006524;28;20053;-59
2022/01/18 00:59:33;;;;;;;28.25;9.57;;;;;;;0.92;76.88;102376.75;5009118;28;20125;-58
2022/01/18 01:02:00;;;;;;;28.85;9.95;;;;;;;0.90;76.91;102376.63;5005696;28;20091;-60
2022/01/18 01:04:30;;;;;;;26.83;9.80;;;;;;;0.88;77.67;102383.31;4991530;28;20097;-56
2022/01/18 01:06:57;;;;;;;25.88;8.98;;;;;;;0.86;77.03;102375.53;4988646;28;20039;-55
2022/01/18 01:09:23;;;;;;;35.80;11.25;;;;;;;0.85;77.74;102368.63;4989477;28;20495;-56
2022/01/18 01:11:50;;;;;;;22.80;9.45;;;;;;;0.84;77.05;102366.00;4989558;28;20042;-55
2022/01/18 01:14:21;;;;;;;23.33;9.23;;;;;;;0.83;76.82;102364.19;4991121;28;20133;-55
2022/01/18 01:16:58;;;;;;;24.88;9.57;;;;;;;0.83;77.05;102371.84;4989345;28;20050;-59
2022/01/18 01:19:46;;;;;;;31.58;10.38;;;;;;;0.83;76.76;102360.00;5008900;28;20061;-55
2022/01/18 01:34:00;;;;;;;30.65;10.68;;;;;;;0.82;76.95;102357.31;5005724;28;20129;-57
2022/01/18 01:42:03;;;;;;;28.25;9.90;;;;;;;0.82;78.43;102357.31;5002350;28;20399;-53
2022/01/18 01:44:42;;;;;;;30.27;9.55;;;;;;;0.83;77.77;102354.00;5001347;28;20400;-59
2022/01/18 01:47:10;;;;;;;31.48;10.07;;;;;;;0.81;77.68;102345.34;4998980;28;20100;-53
2022/01/18 01:49:39;;;;;;;20.52;9.27;;;;;;;0.80;77.82;102348.66;5008300;28;20053;-56
2022/01/18 01:52:08;;;;;;;26.15;9.07;;;;;;;0.77;77.88;102342.56;5003800;28;20088;-53
2022/01/18 01:54:34;;;;;;;27.77;9.23;;;;;;;0.77;77.61;102341.66;5005856;28;20575;-54
2022/01/18 01:57:02;;;;;;;26.10;9.52;;;;;;;0.77;78.02;102339.13;5005453;28;20046;-55
2022/01/18 01:59:29;;;;;;;29.08;11.40;;;;;;;0.76;77.70;102338.25;5009680;28;20045;-54
2022/01/18 02:01:56;;;;;;;26.23;9.35;;;;;;;0.77;77.52;102328.91;5005692;28;20050;-54
2022/01/18 02:04:24;;;;;;;26.20;9.05;;;;;;;0.76;76.97;102332.25;5006605;28;20053;-54
2022/01/18 02:06:51;;;;;;;33.42;9.45;;;;;;;0.72;77.75;102331.16;5007308;28;20108;-55
2022/01/18 02:09:18;;;;;;;31.50;9.15;;;;;;;0.70;78.21;102322.47;5005860;28;20077;-56
2022/01/18 02:11:46;;;;;;;22.45;8.52;;;;;;;0.67;77.55;102319.69;5006622;28;20100;-54
2022/01/18 02:14:18;;;;;;;21.60;7.30;;;;;;;0.66;78.06;102320.47;5004210;28;20461;-56
2022/01/18 02:22:19;;;;;;;25.13;8.90;;;;;;;0.62;77.42;102310.81;5004701;28;20053;-54
2022/01/18 02:24:45;;;;;;;25.75;9.45;;;;;;;0.62;77.49;102304.06;5006491;28;20100;-59
2022/01/18 02:27:13;;;;;;;28.73;8.85;;;;;;;0.63;76.94;102300.72;5004837;28;20046;-58
2022/01/18 02:29:40;;;;;;;29.23;8.63;;;;;;;0.64;77.38;102296.50;5007459;28;20386;-56
2022/01/18 02:32:08;;;;;;;18.92;7.45;;;;;;;0.63;77.38;102304.94;5002025;28;20050;-56
2022/01/18 02:34:34;;;;;;;30.95;9.43;;;;;;;0.65;77.97;102303.41;5009627;28;20041;-57
2022/01/18 02:37:04;;;;;;;23.45;8.73;;;;;;;0.62;77.70;102298.97;5003869;28;20417;-57
2022/01/18 02:39:31;;;;;;;25.73;9.95;;;;;;;0.63;77.82;102297.28;5005934;28;20050;-54
2022/01/18 02:42:01;;;;;;;27.58;9.35;;;;;;;0.62;77.53;102303.16;5005301;28;20512;-58
2022/01/18 02:44:29;;;;;;;27.20;9.88;;;;;;;0.60;77.69;102294.50;5004046;28;20108;-56
2022/01/18 02:46:56;;;;;;;23.73;8.80;;;;;;;0.60;77.87;102297.03;5005026;28;20058;-57
2022/01/18 02:49:23;;;;;;;30.25;9.80;;;;;;;0.58;78.12;102290.97;5004141;28;20053;-56
2022/01/18 02:51:50;;;;;;;29.70;7.40;;;;;;;0.56;78.12;102292.50;5005442;28;20471;-57
2022/01/18 02:54:18;;;;;;;30.77;8.65;;;;;;;0.56;77.33;102292.50;5002224;28;20437;-56
2022/01/18 02:56:51;;;;;;;26.88;7.35;;;;;;;0.55;78.31;102295.81;5002459;28;20645;-57
2022/01/18 02:59:32;;;;;;;24.40;9.70;;;;;;;0.53;78.01;102292.28;4997526;28;20054;-54
2022/01/18 03:04:49;;;;;;;24.55;8.93;;;;;;;0.49;78.50;102292.06;5000950;28;20042;-53
2022/01/18 03:07:16;;;;;;;23.70;8.48;;;;;;;0.48;78.15;102290.25;5002720;28;20057;-59
2022/01/18 03:09:43;;;;;;;26.63;9.55;;;;;;;0.47;78.23;102288.47;5004458;28;20042;-53
2022/01/18 03:12:10;;;;;;;20.98;8.18;;;;;;;0.47;77.96;102288.47;5000326;28;20525;-56
2022/01/18 03:14:38;;;;;;;26.23;9.27;;;;;;;0.47;77.23;102287.63;5002664;28;20041;-58
2022/01/18 03:17:06;;;;;;;24.67;8.85;;;;;;;0.46;77.38;102289.25;4998451;28;20072;-59
2022/01/18 03:19:33;;;;;;;23.10;9.50;;;;;;;0.44;77.57;102301.00;5004425;28;20060;-55
2022/01/18 03:22:00;;;;;;;29.00;10.65;;;;;;;0.44;77.57;102293.34;4999217;28;20049;-59
2022/01/18 03:24:45;;;;;;;22.27;10.15;;;;;;;0.46;78.10;102296.91;5001201;28;20084;-56
2022/01/18 03:30:07;;;;;;;24.50;8.85;;;;;;;0.44;77.81;102283.16;4998541;28;20061;-55
2022/01/18 03:32:34;;;;;;;23.95;9.25;;;;;;;0.42;77.53;102284.72;5000899;28;20053;-53
2022/01/18 03:35:01;;;;;;;26.00;9.65;;;;;;;0.41;77.63;102298.25;4998838;28;20041;-56
2022/01/18 03:37:28;;;;;;;23.92;8.95;;;;;;;0.40;77.96;102296.44;5001958;28;20481;-53
2022/01/18 03:39:58;;;;;;;26.80;9.93;;;;;;;0.40;78.38;102291.34;5004879;28;20137;-57
2022/01/18 03:42:42;;;;;;;29.23;9.90;;;;;;;0.40;78.27;102286.25;5005079;28;20116;-56
2022/01/18 03:45:12;;;;;;;26.23;9.15;;;;;;;0.42;78.09;102283.81;5003628;28;20096;-53
2022/01/18 03:47:40;;;;;;;22.77;8.30;;;;;;;0.45;77.75;102279.84;4998194;28;20061;-54
2022/01/18 03:50:09;;;;;;;23.63;8.88;;;;;;;0.49;78.50;102283.50;5003096;28;20132;-55
2022/01/18 03:52:36;;;;;;;22.67;7.55;;;;;;;0.53;78.62;102282.09;5002745;28;20049;-54
2022/01/18 03:55:05;;;;;;;28.95;9.35;;;;;;;0.55;77.73;102277.97;5001164;28;20054;-56
2022/01/18 03:57:32;;;;;;;19.95;8.35;;;;;;;0.49;77.74;102269.09;5005662;28;20053;-56
2022/01/18 03:59:59;;;;;;;24.98;8.60;;;;;;;0.46;77.46;102266.31;5002403;28;20101;-54
2022/01/18 04:02:26;;;;;;;29.48;9.60;;;;;;;0.48;78.39;102262.19;5005197;28;20068;-54
2022/01/18 04:04:53;;;;;;;28.65;9.48;;;;;;;0.49;78.59;102266.56;5005539;28;20064;-54
2022/01/18 04:07:19;;;;;;;19.23;8.05;;;;;;;0.53;78.89;102266.78;5006256;28;20062;-58
2022/01/18 04:09:46;;;;;;;24.42;9.13;;;;;;;0.55;78.00;102266.13;5009105;28;20054;-57
2022/01/18 04:12:13;;;;;;;18.70;7.22;;;;;;;0.55;78.27;102260.13;5010360;28;20449;-52
2022/01/18 04:14:40;;;;;;;20.27;6.35;;;;;;;0.48;77.49;102254.53;5008419;28;20425;-54
2022/01/18 04:17:19;;;;;;;22.25;7.63;;;;;;;0.45;78.14;102258.53;5006231;28;20081;-53
2022/01/18 04:28:23;;;;;;;24.08;7.65;;;;;;;0.48;78.89;102249.44;5007957;28;20050;-54
2022/01/18 04:30:50;;;;;;;27.65;6.57;;;;;;;0.50;79.18;102242.81;5002563;28;20528;-56
2022/01/18 04:33:17;;;;;;;23.45;8.13;;;;;;;0.53;78.44;102238.72;5009832;28;20053;-55
2022/01/18 04:35:44;;;;;;;22.27;8.75;;;;;;;0.49;78.57;102233.41;5003924;28;20046;-57
2022/01/18 04:38:12;;;;;;;25.55;8.05;;;;;;;0.45;78.63;102233.94;5009266;28;20073;-55
2022/01/18 04:40:43;;;;;;;18.10;8.02;;;;;;;0.40;77.85;102235.25;5007754;28;20410;-55
2022/01/18 04:43:19;;;;;;;26.08;8.65;;;;;;;0.36;78.10;102233.25;5008434;28;20482;-56
2022/01/18 04:48:34;;;;;;;20.55;7.95;;;;;;;0.28;77.83;102236.88;5004401;28;20054;-56
2022/01/18 04:51:06;;;;;;;18.20;7.25;;;;;;;0.27;78.18;102237.66;5010196;28;20064;-52
2022/01/18 04:53:36;;;;;;;22.30;7.32;;;;;;;0.25;77.83;102235.00;5004380;28;20553;-54
2022/01/18 04:56:08;;;;;;;20.90;8.00;;;;;;;0.24;78.40;102233.25;5010121;28;20049;-56
2022/01/18 04:58:35;;;;;;;23.27;8.50;;;;;;;0.22;77.80;102230.56;5007264;28;20111;-59
2022/01/18 05:01:04;;;;;;;18.85;7.63;;;;;;;0.22;78.18;102238.22;5006365;28;20050;-51
2022/01/18 05:03:31;;;;;;;28.83;9.68;;;;;;;0.16;78.38;102235.19;5005031;28;20069;-54
2022/01/18 05:06:01;;;;;;;40.85;8.32;;;;;;;0.08;77.94;102238.81;5010613;28;20057;-55
2022/01/18 05:08:28;;;;;;;29.48;8.38;;;;;;;0.02;78.09;102233.25;5007344;28;20579;-57
2022/01/18 05:10:57;;;;;;;19.13;8.05;;;;;;;-0.05;77.97;102235.34;5004733;28;20046;-54
2022/01/18 05:16:29;;;;;;;22.92;6.15;;;;;;;-0.10;78.26;102221.34;4986977;28;20485;-54
2022/01/18 05:19:04;;;;;;;21.63;7.43;;;;;;;-0.06;78.25;102218.31;4987384;28;20473;-52
2022/01/18 05:21:35;;;;;;;19.00;7.93;;;;;;;-0.03;78.12;102223.59;4997932;28;20101;-56
2022/01/18 05:24:02;;;;;;;20.10;8.25;;;;;;;-0.04;78.38;102216.75;5003635;28;20050;-53
2022/01/18 05:26:29;;;;;;;16.75;7.53;;;;;;;-0.03;77.94;102220.19;5008419;28;20046;-54
2022/01/18 05:28:57;;;;;;;23.92;8.30;;;;;;;-0.03;77.81;102218.50;5004992;28;20050;-54
2022/01/18 05:31:25;;;;;;;17.70;7.07;;;;;;;-0.03;78.25;102226.16;5009406;28;20478;-57
2022/01/18 05:33:53;;;;;;;19.35;7.30;;;;;;;-0.01;77.90;102232.28;5005909;28;20054;-55
2022/01/18 05:36:20;;;;;;;19.83;7.18;;;;;;;-0.02;78.07;102232.16;5008947;28;20046;-53
2022/01/18 05:38:47;;;;;;;15.60;6.15;;;;;;;-0.06;78.07;102231.03;5004775;28;20050;-54
2022/01/18 05:41:14;;;;;;;13.05;6.25;;;;;;;-0.10;77.87;102223.91;5007561;28;20735;-54
2022/01/18 05:43:41;;;;;;;11.02;5.53;;;;;;;-0.12;77.79;102228.00;5008851;28;20054;-59
2022/01/18 05:46:08;;;;;;;11.15;5.07;;;;;;;-0.15;77.42;102223.56;5005255;28;20038;-52
2022/01/18 05:48:35;;;;;;;12.52;5.20;;;;;;;-0.14;77.97;102239.72;5008101;28;20046;-55
2022/01/18 05:51:01;;;;;;;13.43;5.60;;;;;;;-0.15;78.10;102232.88;5004029;28;20131;-58
2022/01/18 05:53:30;;;;;;;15.40;7.80;;;;;;;-0.15;77.92;102235.41;5010295;28;20050;-56
2022/01/18 05:55:58;;;;;;;17.90;7.22;;;;;;;-0.18;77.57;102237.72;5001650;28;20073;-55
2022/01/18 05:58:25;;;;;;;17.33;5.53;;;;;;;-0.19;77.94;102235.97;4999524;28;20448;-54
2022/01/18 06:00:53;;;;;;;22.17;7.32;;;;;;;-0.21;78.00;102238.38;5004269;28;20428;-54
2022/01/18 06:03:36;;;;;;;35.28;16.88;;;;;;;-0.19;78.30;102241.06;5003272;28;20088;-55
2022/01/18 06:08:51;;;;;;;22.08;10.40;;;;;;;-0.23;78.09;102237.41;5004112;28;20715;-52
2022/01/18 06:11:18;;;;;;;21.48;9.48;;;;;;;-0.25;78.01;102231.28;5006242;28;20066;-57
2022/01/18 06:13:45;;;;;;;29.60;14.73;;;;;;;-0.28;77.82;102229.38;5004467;28;20054;-55
2022/01/18 06:16:12;;;;;;;25.38;12.80;;;;;;;-0.26;77.92;102235.47;5005859;28;20041;-57
2022/01/18 06:18:39;;;;;;;22.05;10.70;;;;;;;-0.22;78.38;102235.72;5006183;28;20485;-53
2022/01/18 06:21:05;;;;;;;21.33;9.30;;;;;;;-0.22;77.81;102228.06;5002654;28;20663;-54
2022/01/18 06:23:32;;;;;;;27.35;9.23;;;;;;;-0.19;78.12;102228.31;5009557;28;20041;-53
2022/01/18 06:26:02;;;;;;;22.00;8.63;;;;;;;-0.17;78.38;102230.19;5001188;28;20046;-52
2022/01/18 06:28:31;;;;;;;31.23;10.13;;;;;;;-0.14;78.62;102235.53;5004362;28;20054;-54
2022/01/18 06:30:58;;;;;;;22.70;10.00;;;;;;;-0.14;77.95;102245.72;5003538;28;20096;-54
2022/01/18 06:33:25;;;;;;;21.92;8.85;;;;;;;-0.22;77.93;102235.72;5003492;28;20100;-54
2022/01/18 06:35:51;;;;;;;20.95;8.93;;;;;;;-0.28;77.80;102236.13;5007070;28;20560;-57
2022/01/18 06:38:18;;;;;;;21.52;8.65;;;;;;;-0.32;77.48;102234.13;5003301;28;20056;-55
2022/01/18 06:40:46;;;;;;;25.60;9.00;;;;;;;-0.33;77.95;102238.34;5009557;28;20061;-55
2022/01/18 06:43:12;;;;;;;26.45;10.88;;;;;;;-0.33;77.88;102232.34;5001289;28;20413;-53
2022/01/18 06:45:40;;;;;;;21.17;10.23;;;;;;;-0.32;77.86;102231.56;5002874;28;20077;-54
2022/01/18 06:48:07;;;;;;;21.92;8.32;;;;;;;-0.32;77.89;102235.03;5004311;28;20432;-56
2022/01/18 06:50:35;;;;;;;22.17;10.68;;;;;;;-0.31;78.52;102236.78;5000760;28;20058;-55
2022/01/18 06:53:02;;;;;;;19.25;10.13;;;;;;;-0.32;78.08;102235.03;5006912;28;20073;-54
2022/01/18 06:55:30;;;;;;;17.92;7.35;;;;;;;-0.34;77.85;102234.00;4999341;28;20404;-52
2022/01/18 06:57:57;;;;;;;14.50;6.68;;;;;;;-0.35;77.41;102232.22;5004835;28;20453;-57
2022/01/18 07:00:23;;;;;;;10.32;5.28;;;;;;;-0.36;77.95;102227.91;5000741;28;20050;-55
2022/01/18 07:02:50;;;;;;;16.75;5.20;;;;;;;-0.35;77.65;102227.13;5002560;28;20101;-53
2022/01/18 07:05:17;;;;;;;10.88;4.47;;;;;;;-0.32;78.04;102235.03;5005214;28;20133;-54
2022/01/18 07:07:47;;;;;;;7.30;3.58;;;;;;;-0.27;78.55;102232.84;5003879;28;20050;-58
2022/01/18 07:10:15;;;;;;;9.30;3.42;;;;;;;-0.22;78.46;102228.06;5004184;28;20095;-53
2022/01/18 07:12:43;;;;;;;9.50;4.55;;;;;;;-0.18;78.69;102228.44;5002563;28;20046;-52
2022/01/18 07:15:10;;;;;;;10.45;5.05;;;;;;;-0.12;78.25;102228.00;5002988;28;20050;-56
2022/01/18 07:17:38;;;;;;;12.20;5.80;;;;;;;-0.06;77.89;102233.59;5000549;28;20052;-58
2022/01/18 07:20:05;;;;;;;10.48;5.53;;;;;;;0.01;78.19;102234.03;5004216;28;20096;-55
2022/01/18 07:22:32;;;;;;;10.70;4.00;;;;;;;0.05;78.12;102238.59;5002872;28;20468;-57
2022/01/18 07:24:59;;;;;;;4.40;1.52;;;;;;;0.10;78.49;102250.91;5001413;28;20441;-52
2022/01/18 07:27:26;;;;;;;5.57;1.90;;;;;;;0.12;78.25;102240.84;5001223;28;20042;-56
2022/01/18 07:29:53;;;;;;;2.88;1.90;;;;;;;0.15;78.09;102243.63;5008248;28;20038;-53
2022/01/18 07:32:20;;;;;;;5.80;2.25;;;;;;;0.18;77.85;102248.97;5000001;28;20510;-58
2022/01/18 07:34:52;;;;;;;6.70;1.30;;;;;;;0.21;78.24;102249.16;5006169;28;20684;-53
2022/01/18 07:37:21;;;;;;;3.60;2.42;;;;;;;0.25;77.72;102251.19;5000920;28;20126;-56
2022/01/18 07:39:49;;;;;;;3.45;2.35;;;;;;;0.29;78.68;102247.19;5003496;28;20097;-54
2022/01/18 07:42:17;;;;;;;5.63;2.83;;;;;;;0.34;77.82;102250.09;5002655;28;20050;-56
2022/01/18 07:44:44;;;;;;;9.50;1.95;;;;;;;0.36;77.95;102238.34;5001313;28;20425;-54
2022/01/18 07:47:10;;;;;;;6.60;2.65;;;;;;;0.38;77.71;102236.81;5000652;28;20053;-54
2022/01/18 07:49:42;;;;;;;6.70;1.92;;;;;;;0.41;78.15;102244.69;5004663;28;20800;-57
2022/01/18 07:52:09;;;;;;;9.88;3.17;;;;;;;0.45;78.16;102239.03;5009755;28;20049;-55
2022/01/18 07:54:35;;;;;;;4.40;2.53;;;;;;;0.47;78.21;102244.25;5007177;28;20116;-59
2022/01/18 07:57:03;;;;;;;7.55;2.85;;;;;;;0.51;77.99;102247.13;4990075;28;20046;-54
2022/01/18 07:59:30;;;;;;;12.43;4.57;;;;;;;0.56;78.26;102251.69;4996493;28;20096;-53
2022/01/18 08:01:56;;;;;;;8.25;3.08;;;;;;;0.58;78.31;102245.03;4998267;28;20100;-57
2022/01/18 08:04:23;;;;;;;10.98;4.22;;;;;;;0.61;77.23;102247.84;4997719;28;20046;-53
2022/01/18 08:06:50;;;;;;;15.48;4.68;;;;;;;0.64;78.07;102246.38;5002460;28;20050;-54
2022/01/18 08:09:19;;;;;;;14.25;4.55;;;;;;;0.68;77.80;102252.63;4999881;28;20050;-54
2022/01/18 08:11:47;;;;;;;16.48;5.10;;;;;;;0.73;78.35;102256.38;4996553;28;20052;-53
2022/01/18 08:14:16;;;;;;;19.15;7.20;;;;;;;0.80;78.42;102254.25;4994754;28;20092;-58
2022/01/18 08:16:59;;;;;;;8.80;5.22;;;;;;;0.93;77.79;102259.50;4996003;28;20053;-55
2022/01/18 08:19:29;;;;;;;11.10;4.70;;;;;;;1.11;77.74;102253.91;4997771;28;20079;-56
2022/01/18 08:21:56;;;;;;;7.30;4.00;;;;;;;1.32;78.49;102258.81;4996662;28;20076;-56
2022/01/18 08:24:23;;;;;;;11.63;4.07;;;;;;;1.61;78.10;102265.06;5002094;28;20076;-53
2022/01/18 08:26:50;;;;;;;7.95;2.97;;;;;;;1.97;78.02;102260.75;4999508;28;20427;-53
2022/01/18 08:29:16;;;;;;;8.43;3.08;;;;;;;2.40;77.35;102254.19;4999318;28;20454;-53
2022/01/18 08:32:05;;;;;;;5.63;2.97;;;;;;;2.83;76.30;102266.34;5000264;28;20141;-55
2022/01/18 08:34:32;;;;;;;15.00;4.53;;;;;;;3.08;75.83;102258.56;5001324;28;20049;-53
2022/01/18 08:36:59;;;;;;;9.07;4.50;;;;;;;3.34;76.33;102267.03;4998938;28;20053;-55
2022/01/18 08:39:25;;;;;;;12.82;4.63;;;;;;;3.64;76.34;102260.28;4998415;28;20063;-55
2022/01/18 08:41:52;;;;;;;12.73;4.07;;;;;;;4.16;76.04;102266.78;5000341;28;20054;-59
2022/01/18 08:44:18;;;;;;;10.35;3.60;;;;;;;4.81;75.04;102270.53;4998303;28;20108;-54
2022/01/18 08:46:45;;;;;;;7.68;4.22;;;;;;;5.45;73.99;102260.28;4998940;28;20096;-53
2022/01/18 08:49:12;;;;;;;11.70;4.30;;;;;;;6.08;73.81;102264.44;5001143;28;20050;-54
2022/01/18 08:51:38;;;;;;;11.45;4.88;;;;;;;6.58;72.24;102266.94;5001349;28;20042;-53
2022/01/18 08:54:07;;;;;;;6.93;3.42;;;;;;;6.86;72.28;102265.72;4998087;28;20074;-59
2022/01/18 08:56:33;;;;;;;7.95;3.33;;;;;;;6.99;71.78;102262.03;5002257;28;20053;-54
2022/01/18 08:59:19;;;;;;;6.38;3.40;;;;;;;7.01;71.02;102262.97;5002691;28;20239;-55
2022/01/18 09:01:46;;;;;;;8.43;3.35;;;;;;;6.84;69.64;102268.22;5004832;28;20057;-58
2022/01/18 09:04:12;;;;;;;8.98;3.65;;;;;;;6.61;70.79;102262.81;5004414;28;20092;-55
2022/01/18 09:06:40;;;;;;;5.65;2.90;;;;;;;6.37;70.95;102267.59;5000611;28;20041;-56
2022/01/18 09:09:08;;;;;;;8.43;3.47;;;;;;;6.15;72.09;102272.53;5005190;28;20050;-60
2022/01/18 09:11:36;;;;;;;6.30;2.58;;;;;;;5.98;71.73;102278.50;5007757;28;20057;-58
2022/01/18 09:14:03;;;;;;;7.13;3.38;;;;;;;5.82;72.05;102272.53;5008172;28;20049;-54
2022/01/18 09:16:29;;;;;;;6.13;2.80;;;;;;;5.69;71.18;102280.38;5003104;28;20046;-56
2022/01/18 09:18:56;;;;;;;9.18;4.25;;;;;;;5.57;71.81;102276.34;5008044;28;20038;-56
2022/01/18 09:21:25;;;;;;;8.05;3.30;;;;;;;5.51;72.01;102281.19;5004726;28;20080;-57
2022/01/18 09:23:52;;;;;;;6.60;2.92;;;;;;;5.44;71.72;102274.81;5005845;28;20046;-58
2022/01/18 09:26:19;;;;;;;6.55;3.17;;;;;;;5.37;72.59;102272.72;5002947;28;20051;-56
2022/01/18 09:28:46;;;;;;;6.78;3.10;;;;;;;5.31;72.00;102275.84;5003275;28;20042;-55
2022/01/18 09:31:13;;;;;;;6.25;2.80;;;;;;;5.28;72.34;102288.53;5003000;28;20050;-54
2022/01/18 09:33:39;;;;;;;8.63;4.35;;;;;;;5.23;72.39;102283.13;5005021;28;20114;-56
2022/01/18 09:36:06;;;;;;;6.55;3.67;;;;;;;5.22;72.71;102288.16;4995572;28;20122;-56
2022/01/18 09:38:33;;;;;;;5.25;3.45;;;;;;;5.22;72.05;102285.59;5000384;28;20048;-58
2022/01/18 09:41:08;;;;;;;5.63;3.67;;;;;;;5.26;73.13;102284.97;5006539;28;20054;-57
2022/01/18 09:43:35;;;;;;;8.52;4.18;;;;;;;5.36;72.91;102271.84;4999875;28;20045;-54
2022/01/18 09:46:02;;;;;;;9.10;4.78;;;;;;;5.54;73.67;102276.19;5003009;28;20519;-61
2022/01/18 09:48:29;;;;;;;9.68;4.03;;;;;;;5.77;73.12;102274.88;4997326;28;20153;-59
2022/01/18 09:50:55;;;;;;;9.57;4.03;;;;;;;5.99;72.27;102281.16;4999634;28;20049;-60
2022/01/18 09:53:22;;;;;;;11.20;3.17;;;;;;;6.16;73.46;102273.44;5002136;28;20050;-55
2022/01/18 09:55:50;;;;;;;11.55;4.90;;;;;;;6.34;71.78;102268.34;4998175;28;20143;-58
2022/01/18 09:58:16;;;;;;;8.32;3.33;;;;;;;6.48;71.69;102275.91;5002045;28;20049;-54
2022/01/18 10:00:43;;;;;;;5.20;3.17;;;;;;;6.66;72.50;102275.91;4994324;28;20053;-57
2022/01/18 10:03:31;;;;;;;8.00;3.20;;;;;;;6.96;72.64;102274.75;4997230;28;20100;-57
2022/01/18 10:05:58;;;;;;;6.18;3.85;;;;;;;7.70;72.99;102277.31;4999643;28;20053;-55
2022/01/18 10:08:25;;;;;;;10.75;4.25;;;;;;;8.63;72.80;102280.44;5000129;28;20528;-61
2022/01/18 10:10:56;;;;;;;15.00;5.57;;;;;;;9.34;71.46;102279.78;4997882;28;20058;-57
2022/01/18 10:13:26;;;;;;;33.95;10.88;;;;;;;9.79;70.37;102285.72;5004472;28;20061;-60
2022/01/18 10:16:15;;;;;;;33.90;11.68;;;;;;;10.58;70.84;102284.16;5003221;28;20057;-59
2022/01/18 10:19:03;;;;;;;42.33;15.80;;;;;;;11.90;70.22;102285.53;5001452;28;20042;-59
2022/01/18 10:21:39;;;;;;;69.55;30.48;;;;;;;13.23;67.05;102304.44;4997773;28;20052;-58
2022/01/18 10:24:16;;;;;;;55.40;23.23;;;;;;;14.34;63.39;102299.72;4999796;28;20078;-55
2022/01/18 10:26:45;;;;;;;43.10;18.80;;;;;;;15.27;61.32;102304.69;5000686;28;20043;-53
2022/01/18 10:29:14;;;;;;;21.17;10.13;;;;;;;16.08;60.25;102303.06;5005525;28;20097;-58
2022/01/18 10:31:55;;;;;;;23.40;9.65;;;;;;;16.80;57.61;102308.94;5004236;28;20060;-54
2022/01/18 10:35:04;;;;;;;27.48;9.52;;;;;;;17.34;56.63;102313.66;5002703;28;20100;-58
2022/01/18 10:37:19;;;;;;;27.65;10.73;;;;;;;17.93;54.74;102302.53;5001698;28;20713;-58
2022/01/18 10:39:53;;;;;;;17.50;7.10;;;;;;;17.95;53.72;102303.41;5004146;28;20049;-57
2022/01/18 10:42:26;;;;;;;19.42;6.65;;;;;;;17.84;52.65;102306.00;5004189;28;20058;-58
2022/01/18 10:45:22;;;;;;;18.15;6.85;;;;;;;17.54;49.77;102302.41;5006419;28;20119;-56
2022/01/18 10:48:13;;;;;;;25.17;9.80;;;;;;;16.90;50.45;102305.53;5002087;28;20046;-58
2022/01/18 10:50:43;;;;;;;29.88;11.27;;;;;;;16.36;50.41;102295.50;5014357;28;20058;-59
2022/01/18 10:53:15;;;;;;;;;;;;;;;15.58;49.25;102296.38;5004237;28;20057;-56
2022/01/18 10:55:44;;;;;;;11.07;4.72;;;;;;;14.84;51.08;102284.03;5005645;28;19922;-58
2022/01/18 10:58:14;;;;;;;14.88;5.75;;;;;;;14.35;52.10;102282.34;5005713;28;20042;-56
2022/01/18 11:00:40;;;;;;;13.73;6.00;;;;;;;13.89;52.50;102278.06;5001185;28;20038;-56
2022/01/18 11:03:09;;;;;;;24.25;8.30;;;;;;;13.36;53.15;102272.63;5001499;28;20406;-58
2022/01/18 11:05:39;;;;;;;10.35;5.07;;;;;;;12.82;53.33;102274.91;5002944;28;20069;-56
2022/01/18 11:08:06;;;;;;;12.60;7.22;;;;;;;12.62;54.36;102271.81;5003289;28;20042;-58
2022/01/18 11:10:38;;;;;;;15.55;6.97;;;;;;;12.59;53.29;102267.44;5004500;28;20054;-58
2022/01/18 11:13:26;;;;;;;16.58;6.35;;;;;;;12.32;54.49;102263.28;5002246;28;20363;-58
2022/01/18 11:16:03;;;;;;;16.05;6.93;;;;;;;12.05;53.50;102263.41;5000104;28;20112;-61
2022/01/18 11:18:35;;;;;;;15.27;6.78;;;;;;;11.61;54.07;102267.41;4999381;28;20042;-57
2022/01/18 11:21:06;;;;;;;17.75;7.63;;;;;;;11.19;54.52;102261.00;5007093;28;20041;-59
2022/01/18 11:23:34;;;;;;;19.48;7.38;;;;;;;10.83;55.85;102259.91;4999111;28;20091;-59
2022/01/18 11:26:01;;;;;;;14.55;6.60;;;;;;;10.66;56.95;102267.13;4999787;28;20078;-56
2022/01/18 11:28:29;;;;;;;12.77;6.57;;;;;;;10.51;57.12;102264.94;5005313;28;20061;-57
2022/01/18 11:30:57;;;;;;;14.35;5.47;;;;;;;10.39;57.44;102257.59;5004825;28;20442;-60
2022/01/18 11:33:27;;;;;;;13.55;7.53;;;;;;;10.27;56.86;102260.66;5003010;28;20065;-59
2022/01/18 11:36:02;;;;;;;18.52;8.45;;;;;;;10.13;56.44;102254.97;4999423;28;20459;-58
2022/01/18 11:38:37;;;;;;;11.68;6.25;;;;;;;9.97;57.56;102254.44;5002400;28;20050;-58
2022/01/18 11:41:19;;;;;;;12.90;4.45;;;;;;;9.78;58.09;102252.91;4996362;28;20568;-58
2022/01/18 11:43:46;;;;;;;14.85;6.85;;;;;;;9.64;58.61;102249.84;4996059;28;20050;-56
2022/01/18 11:46:34;;;;;;;15.50;6.05;;;;;;;9.55;57.56;102252.09;5000717;28;20453;-60
2022/01/18 11:49:21;;;;;;;17.65;7.45;;;;;;;9.55;59.28;102259.84;4995654;28;20112;-55
2022/01/18 11:51:58;;;;;;;16.80;7.40;;;;;;;9.63;59.55;102256.69;5001833;28;20058;-58
2022/01/18 11:54:31;;;;;;;;;;;;;;;9.63;60.36;102251.53;5001291;28;20068;-58
2022/01/18 11:56:59;;;;;;;19.95;7.43;;;;;;;9.85;59.57;102254.00;5000774;28;19975;-54
2022/01/18 11:59:34;;;;;;;13.55;6.75;;;;;;;9.95;59.67;102256.13;5000473;28;20046;-55
2022/01/18 12:02:04;;;;;;;16.63;7.82;;;;;;;9.94;58.49;102254.34;4998445;28;20050;-56
2022/01/18 12:05:11;;;;;;;12.77;7.18;;;;;;;9.83;59.20;102258.28;5000519;28;20048;-59
2022/01/18 12:07:52;;;;;;;12.63;7.00;;;;;;;9.55;58.79;102249.50;5002243;28;20044;-58
2022/01/18 12:10:43;;;;;;;;;;;;;;;9.25;58.84;102246.69;5002407;28;20061;-57
2022/01/18 12:13:13;;;;;;;19.25;7.72;;;;;;;9.14;59.61;102250.56;5001070;28;20751;-59
2022/01/18 12:15:49;;;;;;;16.00;6.57;;;;;;;8.95;59.29;102255.00;4997349;28;20149;-59
2022/01/18 12:18:19;;;;;;;16.27;7.50;;;;;;;8.86;60.17;102247.75;4996546;28;20065;-59
2022/01/18 12:20:48;;;;;;;15.25;7.38;;;;;;;8.77;60.22;102246.50;5002890;28;20054;-59
2022/01/18 12:23:22;;;;;;;13.25;6.70;;;;;;;8.73;60.31;102245.53;5003422;28;20065;-59
2022/01/18 12:26:01;;;;;;;15.32;7.03;;;;;;;8.60;60.39;102244.13;5008309;28;20097;-65